| time (UTC) | temp F | wind direction | speed knots | gust knots | rain 1hr in | rain 24hr in | rain mn in | humidity % | barometer mb |
| 20260508141221 | 52 | 207 | 0.9 | 2.6 | 0.00 | 0.00 | 0.00 | 87 | 1019.6 |
| 20260508140920 | 52 | 207 | 0.9 | 2.6 | 0.00 | 0.00 | 0.00 | 87 | 1019.4 |
| 20260508140714 | 52 | 0 | 0.0 | 2.6 | 0.00 | 0.00 | 0.00 | 87 | 1019.5 |
| 20260508140403 | 52 | 0 | 0.0 | 2.6 | 0.00 | 0.00 | 0.00 | 87 | 1019.6 |
| 20260508140207 | 52 | 222 | 0.9 | 2.6 | 0.00 | 0.00 | 0.00 | 87 | 1019.6 |
| 20260508135846 | 51 | 222 | 2.6 | 2.6 | 0.00 | 0.00 | 0.00 | 87 | 1019.8 |
| 20260508135700 | 51 | 0 | 0.0 | 0.0 | 0.00 | 0.00 | 0.00 | 87 | 1019.7 |
| 20260508135329 | 51 | 0 | 0.0 | 0.0 | 0.00 | 0.00 | 0.00 | 87 | 1019.6 |
| 20260508135153 | 51 | 0 | 0.0 | 0.0 | 0.00 | 0.00 | 0.00 | 87 | 1019.4 |
| 20260508134812 | 51 | 0 | 0.0 | 0.0 | 0.00 | 0.00 | 0.00 | 87 | 1019.2 |
| 20260508134646 | 51 | 0 | 0.0 | 0.0 | 0.00 | 0.00 | 0.00 | 87 | 1019.2 |
| 20260508134255 | 51 | 0 | 0.0 | 0.0 | 0.00 | 0.00 | 0.00 | 87 | 1019.5 |
| 20260508134139 | 51 | 0 | 0.0 | 0.0 | 0.00 | 0.00 | 0.00 | 87 | 1019.5 |
| 20260508133738 | 51 | 0 | 0.0 | 0.0 | 0.00 | 0.00 | 0.00 | 88 | 1019.4 |
| 20260508133632 | 51 | 0 | 0.0 | 0.0 | 0.00 | 0.00 | 0.00 | 88 | 1019.4 |
| 20260508133221 | 51 | 0 | 0.0 | 0.0 | 0.00 | 0.00 | 0.00 | 88 | 1019.5 |
| 20260508133125 | 51 | 0 | 0.0 | 0.0 | 0.00 | 0.00 | 0.00 | 88 | 1019.5 |
| 20260508132704 | 51 | 0 | 0.0 | 0.0 | 0.00 | 0.00 | 0.00 | 88 | 1019.6 |
| 20260508132618 | 51 | 0 | 0.0 | 0.0 | 0.00 | 0.00 | 0.00 | 88 | 1019.5 |
| 20260508132147 | 51 | 0 | 0.0 | 0.0 | 0.00 | 0.00 | 0.00 | 88 | 1019.5 |
| 20260508132111 | 51 | 0 | 0.0 | 0.0 | 0.00 | 0.00 | 0.00 | 88 | 1019.5 |
| 20260508131604 | 51 | 0 | 0.0 | 0.0 | 0.00 | 0.00 | 0.00 | 87 | 1019.5 |
| 20260508131113 | 51 | 0 | 0.0 | 0.0 | 0.00 | 0.00 | 0.00 | 87 | 1019.5 |
| 20260508131057 | 51 | 0 | 0.0 | 0.0 | 0.00 | 0.00 | 0.00 | 87 | 1019.5 |
| 20260508130556 | 51 | 0 | 0.0 | 0.0 | 0.00 | 0.00 | 0.00 | 87 | 1019.6 |
| 20260508130550 | 51 | 0 | 0.0 | 0.0 | 0.00 | 0.00 | 0.00 | 87 | 1019.6 |
| 20260508130043 | 51 | 0 | 0.0 | 4.3 | 0.00 | 0.00 | 0.00 | 87 | 1019.5 |
| 20260508125029 | 51 | 0 | 0.0 | 4.3 | 0.00 | 0.00 | 0.00 | 87 | 1019.7 |
| 20260508125005 | 51 | 0 | 0.0 | 4.3 | 0.00 | 0.00 | 0.00 | 87 | 1019.7 |
| 20260508124522 | 51 | 302 | 1.7 | 4.3 | 0.00 | 0.00 | 0.00 | 87 | 1019.7 |
| 20260508124448 | 51 | 302 | 1.7 | 4.3 | 0.00 | 0.00 | 0.00 | 87 | 1019.7 |
| 20260508124015 | 51 | 270 | 1.7 | 3.5 | 0.00 | 0.00 | 0.00 | 87 | 1019.7 |
| 20260508123508 | 51 | 280 | 3.5 | 3.5 | 0.00 | 0.00 | 0.00 | 88 | 1019.7 |
| 20260508123415 | 51 | 0 | 0.0 | 5.2 | 0.00 | 0.00 | 0.00 | 88 | 1019.7 |
| 20260508122857 | 51 | 0 | 0.0 | 5.2 | 0.00 | 0.00 | 0.00 | 88 | 1019.7 |
| 20260508122340 | 51 | 0 | 0.0 | 5.2 | 0.00 | 0.00 | 0.00 | 89 | 1019.5 |
| 20260508121947 | 51 | 285 | 1.7 | 5.2 | 0.00 | 0.00 | 0.00 | 90 | 1019.5 |
| 20260508121440 | 51 | 334 | 1.7 | 4.3 | 0.00 | 0.00 | 0.00 | 91 | 1019.5 |
| 20260508115412 | 51 | 0 | 0.0 | 0.0 | 0.00 | 0.00 | 0.00 | 93 | 1019.2 |
| 20260508114358 | 50 | 0 | 0.0 | 0.0 | 0.00 | 0.00 | 0.00 | 95 | 1019.1 |
| 20260508114124 | 50 | 0 | 0.0 | 0.0 | 0.00 | 0.00 | 0.00 | 95 | 1019.2 |
| 20260508113851 | 50 | 0 | 0.0 | 0.0 | 0.00 | 0.00 | 0.00 | 94 | 1019.0 |
| 20260508113344 | 50 | 0 | 0.0 | 0.0 | 0.00 | 0.00 | 0.00 | 95 | 1018.9 |
| 20260508112330 | 50 | 0 | 0.0 | 0.0 | 0.00 | 0.00 | 0.00 | 95 | 1018.9 |
| 20260508111459 | 50 | 0 | 0.0 | 0.0 | 0.00 | 0.00 | 0.00 | 95 | 1018.8 |
| 20260508110942 | 50 | 0 | 0.0 | 2.6 | 0.00 | 0.00 | 0.00 | 95 | 1018.6 |
| 20260508110810 | 50 | 0 | 0.0 | 2.6 | 0.00 | 0.00 | 0.00 | 95 | 1018.6 |
| 20260508110425 | 50 | 0 | 0.0 | 2.6 | 0.00 | 0.00 | 0.00 | 95 | 1018.5 |
| 20260508110302 | 50 | 0 | 0.0 | 2.6 | 0.00 | 0.00 | 0.00 | 95 | 1018.6 |
| 20260508105908 | 50 | 0 | 0.0 | 2.6 | 0.00 | 0.00 | 0.00 | 96 | 1018.5 |
| 20260508105755 | 50 | 169 | 0.9 | 2.6 | 0.00 | 0.00 | 0.00 | 96 | 1018.5 |
| 20260508105351 | 50 | 0 | 0.0 | 0.0 | 0.00 | 0.00 | 0.00 | 96 | 1018.5 |
| 20260508105248 | 50 | 0 | 0.0 | 0.0 | 0.00 | 0.00 | 0.00 | 96 | 1018.5 |
| 20260508104834 | 50 | 0 | 0.0 | 0.0 | 0.00 | 0.00 | 0.00 | 96 | 1018.5 |
| 20260508104741 | 50 | 0 | 0.0 | 0.0 | 0.00 | 0.00 | 0.00 | 96 | 1018.6 |
| 20260508104234 | 50 | 0 | 0.0 | 0.0 | 0.00 | 0.00 | 0.00 | 96 | 1018.7 |
| 20260508103800 | 50 | 0 | 0.0 | 0.0 | 0.00 | 0.00 | 0.00 | 96 | 1018.7 |
| 20260508103727 | 50 | 0 | 0.0 | 0.0 | 0.00 | 0.00 | 0.00 | 96 | 1018.7 |
| 20260508103243 | 50 | 0 | 0.0 | 0.0 | 0.00 | 0.00 | 0.00 | 96 | 1018.7 |
| 20260508103221 | 50 | 0 | 0.0 | 0.0 | 0.00 | 0.00 | 0.00 | 96 | 1018.8 |
| 20260508102713 | 50 | 0 | 0.0 | 0.0 | 0.00 | 0.00 | 0.00 | 96 | 1018.6 |
| 20260508102206 | 50 | 0 | 0.0 | 0.0 | 0.00 | 0.00 | 0.00 | 96 | 1018.5 |
| 20260508101652 | 50 | 0 | 0.0 | 0.0 | 0.00 | 0.00 | 0.00 | 96 | 1018.4 |
| 20260508101135 | 50 | 0 | 0.0 | 0.0 | 0.00 | 0.00 | 0.00 | 96 | 1018.5 |
| 20260508100645 | 50 | 0 | 0.0 | 0.0 | 0.00 | 0.00 | 0.00 | 96 | 1018.4 |
| 20260508100138 | 50 | 0 | 0.0 | 0.0 | 0.00 | 0.00 | 0.00 | 96 | 1018.2 |
| 20260508095631 | 50 | 0 | 0.0 | 0.0 | 0.00 | 0.00 | 0.00 | 96 | 1018.1 |
| 20260508095544 | 50 | 0 | 0.0 | 0.0 | 0.00 | 0.00 | 0.00 | 96 | 1018.2 |
| 20260508095124 | 50 | 0 | 0.0 | 0.0 | 0.00 | 0.00 | 0.00 | 96 | 1018.2 |
| 20260508095027 | 50 | 0 | 0.0 | 0.0 | 0.00 | 0.00 | 0.00 | 96 | 1018.2 |
| 20260508094617 | 50 | 0 | 0.0 | 0.0 | 0.00 | 0.00 | 0.00 | 96 | 1018.2 |
| 20260508094510 | 50 | 0 | 0.0 | 0.0 | 0.00 | 0.00 | 0.00 | 96 | 1018.1 |
| 20260508094110 | 50 | 0 | 0.0 | 0.0 | 0.00 | 0.00 | 0.00 | 96 | 1018.2 |
| 20260508093953 | 50 | 0 | 0.0 | 0.0 | 0.00 | 0.00 | 0.00 | 96 | 1018.2 |
| 20260508093603 | 50 | 0 | 0.0 | 0.0 | 0.00 | 0.00 | 0.00 | 96 | 1018.1 |
| 20260508093436 | 50 | 0 | 0.0 | 0.0 | 0.00 | 0.00 | 0.00 | 96 | 1018.2 |
| 20260508093056 | 50 | 0 | 0.0 | 0.0 | 0.00 | 0.00 | 0.00 | 96 | 1018.1 |
| 20260508092919 | 50 | 0 | 0.0 | 0.0 | 0.00 | 0.00 | 0.00 | 96 | 1018.1 |
| 20260508092549 | 49 | 0 | 0.0 | 2.6 | 0.00 | 0.00 | 0.00 | 96 | 1018.3 |
| 20260508092402 | 49 | 0 | 0.0 | 2.6 | 0.00 | 0.00 | 0.00 | 96 | 1018.3 |
| 20260508091845 | 49 | 0 | 0.0 | 2.6 | 0.00 | 0.00 | 0.00 | 96 | 1018.2 |
| 20260508091535 | 49 | 0 | 0.0 | 2.6 | 0.00 | 0.00 | 0.00 | 96 | 1018.2 |
| 20260508091328 | 49 | 0 | 0.0 | 2.6 | 0.00 | 0.00 | 0.00 | 96 | 1018.2 |
| 20260508091028 | 49 | 208 | 0.9 | 2.6 | 0.00 | 0.00 | 0.00 | 96 | 1018.1 |
| 20260508090811 | 49 | 0 | 0.0 | 0.0 | 0.00 | 0.00 | 0.00 | 96 | 1018.2 |
| 20260508090521 | 49 | 0 | 0.0 | 0.0 | 0.00 | 0.00 | 0.00 | 96 | 1018.2 |
| 20260508085737 | 49 | 0 | 0.0 | 0.0 | 0.00 | 0.00 | 0.00 | 96 | 1018.0 |
| 20260508085507 | 49 | 0 | 0.0 | 0.0 | 0.00 | 0.00 | 0.00 | 96 | 1018.0 |
| 20260508085220 | 49 | 0 | 0.0 | 0.0 | 0.00 | 0.00 | 0.00 | 96 | 1018.0 |
| 20260508085001 | 49 | 0 | 0.0 | 0.0 | 0.00 | 0.00 | 0.00 | 96 | 1017.9 |
| 20260508084453 | 49 | 0 | 0.0 | 0.0 | 0.00 | 0.00 | 0.00 | 96 | 1017.9 |
| 20260508084146 | 48 | 0 | 0.0 | 0.0 | 0.00 | 0.00 | 0.00 | 96 | 1017.8 |
| 20260508083949 | 48 | 0 | 0.0 | 0.0 | 0.00 | 0.00 | 0.00 | 96 | 1017.8 |
| 20260508083629 | 48 | 0 | 0.0 | 0.0 | 0.00 | 0.00 | 0.00 | 95 | 1017.8 |
| 20260508083439 | 48 | 0 | 0.0 | 0.0 | 0.00 | 0.00 | 0.00 | 95 | 1017.7 |
| 20260508083112 | 48 | 0 | 0.0 | 0.0 | 0.00 | 0.00 | 0.00 | 95 | 1017.8 |
| 20260508082932 | 48 | 0 | 0.0 | 0.0 | 0.00 | 0.00 | 0.00 | 95 | 1017.9 |
| 20260508082425 | 48 | 0 | 0.0 | 0.0 | 0.00 | 0.00 | 0.00 | 95 | 1017.8 |
| 20260508081918 | 48 | 0 | 0.0 | 0.0 | 0.00 | 0.00 | 0.00 | 95 | 1017.7 |
| 20260508081521 | 47 | 0 | 0.0 | 0.0 | 0.00 | 0.00 | 0.00 | 95 | 1017.6 |
| 20260508081411 | 47 | 0 | 0.0 | 0.0 | 0.00 | 0.00 | 0.00 | 95 | 1017.6 |
| 20260508081004 | 47 | 0 | 0.0 | 0.0 | 0.00 | 0.00 | 0.00 | 95 | 1017.5 |
| 20260508080904 | 47 | 0 | 0.0 | 0.0 | 0.00 | 0.00 | 0.00 | 95 | 1017.6 |
| 20260508080447 | 47 | 0 | 0.0 | 0.0 | 0.00 | 0.00 | 0.00 | 95 | 1017.4 |
| 20260508080357 | 47 | 0 | 0.0 | 0.0 | 0.00 | 0.00 | 0.00 | 95 | 1017.4 |
| 20260508075930 | 47 | 0 | 0.0 | 0.0 | 0.00 | 0.00 | 0.00 | 95 | 1017.3 |
| 20260508075850 | 47 | 0 | 0.0 | 0.0 | 0.00 | 0.00 | 0.00 | 95 | 1017.2 |
| 20260508075412 | 47 | 0 | 0.0 | 0.0 | 0.00 | 0.00 | 0.00 | 94 | 1017.4 |
| 20260508074855 | 47 | 0 | 0.0 | 0.0 | 0.00 | 0.00 | 0.00 | 94 | 1017.6 |
| 20260508074836 | 47 | 0 | 0.0 | 0.0 | 0.00 | 0.00 | 0.00 | 94 | 1017.6 |
| 20260508074338 | 47 | 0 | 0.0 | 0.0 | 0.00 | 0.00 | 0.00 | 94 | 1017.6 |
| 20260508074329 | 47 | 0 | 0.0 | 0.0 | 0.00 | 0.00 | 0.00 | 94 | 1017.6 |
| 20260508073822 | 47 | 0 | 0.0 | 0.0 | 0.00 | 0.00 | 0.00 | 94 | 1017.6 |
| 20260508073315 | 46 | 0 | 0.0 | 0.0 | 0.00 | 0.00 | 0.00 | 94 | 1017.5 |
| 20260508073305 | 46 | 0 | 0.0 | 0.0 | 0.00 | 0.00 | 0.00 | 94 | 1017.5 |
| 20260508072808 | 46 | 0 | 0.0 | 0.0 | 0.00 | 0.00 | 0.00 | 94 | 1017.5 |
| 20260508072747 | 46 | 0 | 0.0 | 0.0 | 0.00 | 0.00 | 0.00 | 94 | 1017.5 |
| 20260508072301 | 47 | 0 | 0.0 | 0.0 | 0.00 | 0.00 | 0.00 | 93 | 1017.5 |
| 20260508072232 | 47 | 0 | 0.0 | 0.0 | 0.00 | 0.00 | 0.00 | 93 | 1017.5 |
| 20260508071754 | 47 | 0 | 0.0 | 0.0 | 0.00 | 0.00 | 0.00 | 92 | 1017.4 |
| 20260508071713 | 47 | 0 | 0.0 | 0.0 | 0.00 | 0.00 | 0.00 | 93 | 1017.4 |
| 20260508071246 | 47 | 0 | 0.0 | 0.0 | 0.00 | 0.00 | 0.00 | 93 | 1017.4 |
| 20260508071156 | 47 | 0 | 0.0 | 0.0 | 0.00 | 0.00 | 0.00 | 93 | 1017.4 |
| 20260508070740 | 47 | 0 | 0.0 | 0.0 | 0.00 | 0.00 | 0.00 | 93 | 1017.4 |
| 20260508070639 | 47 | 0 | 0.0 | 0.0 | 0.00 | 0.00 | 0.00 | 93 | 1017.4 |
| 20260508070304 | 47 | 0 | 0.0 | 0.0 | 0.00 | 0.00 | 0.00 | 93 | 1017.3 |
| 20260508070232 | 47 | 0 | 0.0 | 0.0 | 0.00 | 0.00 | 0.00 | 93 | 1017.3 |
| 20260508070122 | 47 | 0 | 0.0 | 0.0 | 0.00 | 0.00 | 0.00 | 93 | 1017.3 |
| 20260508065726 | 47 | 0 | 0.0 | 0.0 | 0.00 | 0.00 | 0.00 | 93 | 1017.3 |
| 20260508065605 | 47 | 0 | 0.0 | 0.0 | 0.00 | 0.00 | 0.00 | 93 | 1017.4 |
| 20260508065218 | 47 | 0 | 0.0 | 0.0 | 0.00 | 0.00 | 0.00 | 92 | 1017.3 |
| 20260508065048 | 47 | 0 | 0.0 | 0.0 | 0.00 | 0.00 | 0.00 | 92 | 1017.4 |
| 20260508064712 | 47 | 0 | 0.0 | 0.0 | 0.00 | 0.00 | 0.00 | 92 | 1017.3 |
| 20260508064531 | 47 | 0 | 0.0 | 0.0 | 0.00 | 0.00 | 0.00 | 92 | 1017.3 |
| 20260508064205 | 47 | 0 | 0.0 | 0.0 | 0.00 | 0.00 | 0.00 | 92 | 1017.3 |
| 20260508063657 | 47 | 0 | 0.0 | 0.0 | 0.00 | 0.00 | 0.00 | 92 | 1017.2 |
| 20260508063457 | 47 | 0 | 0.0 | 0.0 | 0.00 | 0.00 | 0.00 | 92 | 1017.3 |
| 20260508062940 | 48 | 0 | 0.0 | 0.0 | 0.00 | 0.00 | 0.00 | 92 | 1017.1 |
| 20260508062643 | 48 | 0 | 0.0 | 0.0 | 0.00 | 0.00 | 0.00 | 91 | 1017.1 |
| 20260508062425 | 48 | 0 | 0.0 | 0.0 | 0.00 | 0.00 | 0.00 | 91 | 1017.3 |
| 20260508062136 | 48 | 0 | 0.0 | 0.0 | 0.00 | 0.00 | 0.00 | 91 | 1017.3 |
| 20260508061906 | 48 | 0 | 0.0 | 0.0 | 0.00 | 0.00 | 0.00 | 91 | 1017.2 |
| 20260508061629 | 48 | 0 | 0.0 | 0.0 | 0.00 | 0.00 | 0.00 | 91 | 1017.2 |
| 20260508061350 | 48 | 0 | 0.0 | 0.0 | 0.00 | 0.00 | 0.00 | 91 | 1017.2 |
| 20260508061122 | 48 | 0 | 0.0 | 0.0 | 0.00 | 0.00 | 0.00 | 91 | 1017.1 |
| 20260508060832 | 48 | 0 | 0.0 | 0.0 | 0.00 | 0.00 | 0.00 | 91 | 1017.2 |
| 20260508060615 | 48 | 0 | 0.0 | 0.0 | 0.00 | 0.00 | 0.00 | 91 | 1017.2 |
| 20260508060315 | 48 | 0 | 0.0 | 0.0 | 0.00 | 0.00 | 0.00 | 90 | 1017.1 |
| 20260508060108 | 48 | 0 | 0.0 | 0.0 | 0.00 | 0.00 | 0.00 | 90 | 1017.1 |
| 20260508055758 | 49 | 0 | 0.0 | 0.0 | 0.00 | 0.00 | 0.00 | 90 | 1017.1 |
| 20260508055601 | 49 | 0 | 0.0 | 0.0 | 0.00 | 0.00 | 0.00 | 90 | 1017.0 |
| 20260508055241 | 49 | 0 | 0.0 | 0.0 | 0.00 | 0.00 | 0.00 | 90 | 1017.1 |
| 20260508055054 | 49 | 0 | 0.0 | 0.0 | 0.00 | 0.00 | 0.00 | 90 | 1017.0 |
| 20260508054724 | 49 | 0 | 0.0 | 0.0 | 0.00 | 0.00 | 0.00 | 90 | 1017.2 |
| 20260508054547 | 49 | 0 | 0.0 | 0.0 | 0.00 | 0.00 | 0.00 | 90 | 1017.3 |
| 20260508054208 | 49 | 0 | 0.0 | 0.0 | 0.00 | 0.00 | 0.00 | 90 | 1017.2 |
| 20260508054040 | 49 | 0 | 0.0 | 0.0 | 0.00 | 0.00 | 0.00 | 89 | 1017.2 |
| 20260508053652 | 49 | 0 | 0.0 | 0.0 | 0.00 | 0.00 | 0.00 | 89 | 1017.1 |
| 20260508053533 | 49 | 0 | 0.0 | 0.0 | 0.00 | 0.00 | 0.00 | 89 | 1017.1 |
| 20260508053134 | 49 | 0 | 0.0 | 0.0 | 0.00 | 0.00 | 0.00 | 89 | 1017.1 |
| 20260508053027 | 49 | 0 | 0.0 | 0.0 | 0.00 | 0.00 | 0.00 | 89 | 1017.1 |
| 20260508052616 | 50 | 0 | 0.0 | 0.0 | 0.00 | 0.00 | 0.00 | 89 | 1017.1 |
| 20260508052520 | 50 | 0 | 0.0 | 0.0 | 0.00 | 0.00 | 0.00 | 89 | 1017.1 |
| 20260508052100 | 50 | 0 | 0.0 | 0.0 | 0.00 | 0.00 | 0.00 | 89 | 1017.1 |
| 20260508052012 | 50 | 0 | 0.0 | 0.0 | 0.00 | 0.00 | 0.00 | 89 | 1017.1 |
| 20260508051505 | 50 | 0 | 0.0 | 0.0 | 0.00 | 0.00 | 0.00 | 89 | 1017.0 |
| 20260508051026 | 50 | 0 | 0.0 | 0.0 | 0.00 | 0.00 | 0.00 | 89 | 1017.0 |
| 20260508050958 | 50 | 0 | 0.0 | 0.0 | 0.00 | 0.00 | 0.00 | 89 | 1017.0 |
| 20260508050508 | 50 | 0 | 0.0 | 0.0 | 0.00 | 0.00 | 0.00 | 88 | 1017.1 |
| 20260508050451 | 50 | 0 | 0.0 | 0.0 | 0.00 | 0.00 | 0.00 | 88 | 1017.1 |
| 20260508045945 | 50 | 0 | 0.0 | 0.0 | 0.00 | 0.00 | 0.00 | 88 | 1017.0 |
| 20260508045434 | 50 | 0 | 0.0 | 0.0 | 0.00 | 0.00 | 0.00 | 88 | 1017.1 |
| 20260508044931 | 51 | 0 | 0.0 | 0.0 | 0.00 | 0.00 | 0.00 | 88 | 1017.1 |
| 20260508044917 | 51 | 0 | 0.0 | 0.0 | 0.00 | 0.00 | 0.00 | 88 | 1017.1 |
| 20260508044423 | 51 | 0 | 0.0 | 0.0 | 0.00 | 0.00 | 0.00 | 88 | 1017.0 |
| 20260508044400 | 51 | 0 | 0.0 | 0.0 | 0.00 | 0.00 | 0.00 | 88 | 1017.0 |
| 20260508043916 | 51 | 0 | 0.0 | 0.0 | 0.00 | 0.00 | 0.00 | 88 | 1017.0 |
| 20260508043844 | 51 | 0 | 0.0 | 0.0 | 0.00 | 0.00 | 0.00 | 88 | 1017.2 |
| 20260508043409 | 51 | 0 | 0.0 | 0.0 | 0.00 | 0.00 | 0.00 | 88 | 1017.2 |
| 20260508043326 | 51 | 0 | 0.0 | 0.0 | 0.00 | 0.00 | 0.00 | 87 | 1017.2 |
| 20260508042902 | 51 | 0 | 0.0 | 0.0 | 0.00 | 0.00 | 0.00 | 87 | 1017.1 |
| 20260508042809 | 51 | 0 | 0.0 | 0.0 | 0.00 | 0.00 | 0.00 | 87 | 1017.2 |
| 20260508042355 | 51 | 0 | 0.0 | 0.0 | 0.00 | 0.00 | 0.00 | 87 | 1017.0 |
| 20260508042252 | 51 | 0 | 0.0 | 0.0 | 0.00 | 0.00 | 0.00 | 87 | 1017.1 |
| 20260508041848 | 51 | 0 | 0.0 | 4.3 | 0.00 | 0.00 | 0.00 | 87 | 1017.0 |
| 20260508041737 | 51 | 0 | 0.0 | 4.3 | 0.00 | 0.00 | 0.00 | 87 | 1017.1 |
| 20260508041342 | 52 | 0 | 0.0 | 4.3 | 0.00 | 0.00 | 0.00 | 87 | 1017.0 |
| 20260508041220 | 52 | 0 | 0.0 | 4.3 | 0.00 | 0.00 | 0.00 | 87 | 1016.9 |
| 20260508040835 | 52 | 0 | 0.0 | 4.3 | 0.00 | 0.00 | 0.00 | 87 | 1016.9 |
| 20260508040701 | 52 | 0 | 0.0 | 4.3 | 0.00 | 0.00 | 0.00 | 87 | 1017.0 |
| 20260508040327 | 52 | 0 | 0.0 | 4.3 | 0.00 | 0.00 | 0.00 | 87 | 1016.9 |
| 20260508035628 | 52 | 0 | 0.0 | 5.2 | 0.00 | 0.00 | 0.00 | 86 | 1017.0 |
| 20260508035313 | 52 | 0 | 0.0 | 5.2 | 0.00 | 0.00 | 0.00 | 86 | 1017.0 |
| 20260508035110 | 52 | 0 | 0.0 | 5.2 | 0.00 | 0.00 | 0.00 | 86 | 1016.9 |
| 20260508034553 | 52 | 320 | 0.9 | 5.2 | 0.00 | 0.00 | 0.00 | 86 | 1016.9 |
| 20260508034259 | 52 | 0 | 0.0 | 5.2 | 0.00 | 0.00 | 0.00 | 86 | 1016.8 |
| 20260508034037 | 52 | 37 | 2.6 | 5.2 | 0.00 | 0.00 | 0.00 | 86 | 1016.8 |
| 20260508033752 | 52 | 32 | 1.7 | 5.2 | 0.00 | 0.00 | 0.00 | 85 | 1016.8 |
| 20260508033519 | 52 | 357 | 0.9 | 5.2 | 0.00 | 0.00 | 0.00 | 85 | 1016.7 |
| 20260508033245 | 52 | 47 | 1.7 | 5.2 | 0.00 | 0.00 | 0.00 | 85 | 1016.8 |
| 20260508033002 | 52 | 47 | 1.7 | 5.2 | 0.00 | 0.00 | 0.00 | 85 | 1016.8 |
| 20260508032739 | 52 | 310 | 2.6 | 5.2 | 0.00 | 0.00 | 0.00 | 85 | 1016.7 |
| 20260508032445 | 52 | 310 | 2.6 | 5.2 | 0.00 | 0.00 | 0.00 | 85 | 1016.6 |
| 20260508032231 | 52 | 308 | 1.7 | 4.3 | 0.00 | 0.00 | 0.00 | 84 | 1016.8 |
| 20260508031928 | 52 | 308 | 1.7 | 4.3 | 0.00 | 0.00 | 0.00 | 84 | 1016.8 |
| 20260508031724 | 53 | 324 | 4.3 | 4.3 | 0.00 | 0.00 | 0.00 | 84 | 1016.8 |
| 20260508031411 | 53 | 355 | 1.7 | 8.7 | 0.00 | 0.00 | 0.00 | 84 | 1016.7 |
| 20260508031217 | 53 | 357 | 0.9 | 8.7 | 0.00 | 0.00 | 0.00 | 84 | 1016.7 |
| 20260508030854 | 53 | 357 | 0.9 | 8.7 | 0.00 | 0.00 | 0.00 | 84 | 1016.6 |
| 20260508030710 | 53 | 12 | 6.1 | 8.7 | 0.00 | 0.00 | 0.00 | 84 | 1016.5 |
| 20260508030337 | 53 | 35 | 2.6 | 8.7 | 0.00 | 0.00 | 0.00 | 84 | 1016.5 |
| 20260508030203 | 53 | 347 | 4.3 | 8.7 | 0.00 | 0.00 | 0.00 | 84 | 1016.5 |
| 20260508025820 | 53 | 0 | 0.0 | 8.7 | 0.00 | 0.00 | 0.00 | 83 | 1016.5 |
| 20260508025656 | 53 | 298 | 4.3 | 8.7 | 0.00 | 0.00 | 0.00 | 83 | 1016.7 |
| 20260508025306 | 53 | 0 | 0.0 | 7.0 | 0.00 | 0.00 | 0.00 | 83 | 1016.5 |
| 20260508024746 | 53 | 320 | 4.3 | 7.0 | 0.00 | 0.00 | 0.00 | 83 | 1016.4 |
| 20260508024642 | 53 | 320 | 6.1 | 7.0 | 0.00 | 0.00 | 0.00 | 83 | 1016.4 |
| 20260508024229 | 53 | 32 | 3.5 | 7.0 | 0.00 | 0.00 | 0.00 | 83 | 1016.5 |
| 20260508024135 | 54 | 32 | 6.1 | 7.0 | 0.00 | 0.00 | 0.00 | 83 | 1016.4 |
| 20260508023712 | 54 | 12 | 3.5 | 6.1 | 0.00 | 0.00 | 0.00 | 82 | 1016.8 |
| 20260508023628 | 54 | 12 | 4.3 | 6.1 | 0.00 | 0.00 | 0.00 | 82 | 1016.8 |
| 20260508023155 | 54 | 341 | 2.6 | 6.1 | 0.00 | 0.00 | 0.00 | 82 | 1016.8 |
| 20260508023121 | 54 | 341 | 2.6 | 6.1 | 0.00 | 0.00 | 0.00 | 82 | 1016.7 |
| 20260508022638 | 54 | 357 | 3.5 | 6.1 | 0.00 | 0.00 | 0.00 | 81 | 1016.8 |
| 20260508022614 | 54 | 357 | 2.6 | 6.1 | 0.00 | 0.00 | 0.00 | 81 | 1016.8 |
| 20260508022122 | 54 | 299 | 7.0 | 11.3 | 0.00 | 0.00 | 0.00 | 81 | 1016.7 |
| 20260508022107 | 54 | 326 | 7.0 | 11.3 | 0.00 | 0.00 | 0.00 | 81 | 1016.7 |
| 20260508021601 | 54 | 324 | 6.1 | 11.3 | 0.00 | 0.00 | 0.00 | 81 | 1016.7 |
| 20260508021053 | 54 | 326 | 7.8 | 11.3 | 0.00 | 0.00 | 0.00 | 80 | 1016.7 |
| 20260508021047 | 54 | 326 | 4.3 | 11.3 | 0.00 | 0.00 | 0.00 | 80 | 1016.7 |
| 20260508020546 | 54 | 313 | 8.7 | 11.3 | 0.00 | 0.00 | 0.00 | 80 | 1016.7 |
| 20260508020530 | 54 | 313 | 7.8 | 11.3 | 0.00 | 0.00 | 0.00 | 80 | 1016.7 |
| 20260508015532 | 54 | 317 | 5.2 | 7.8 | 0.00 | 0.00 | 0.00 | 79 | 1016.8 |
| 20260508015456 | 54 | 317 | 4.3 | 7.8 | 0.00 | 0.00 | 0.00 | 79 | 1016.7 |
| 20260508015025 | 55 | 343 | 6.1 | 11.3 | 0.00 | 0.00 | 0.00 | 78 | 1016.8 |
| 20260508014939 | 55 | 343 | 7.0 | 11.3 | 0.00 | 0.00 | 0.00 | 78 | 1016.8 |
| 20260508014518 | 55 | 4 | 6.1 | 11.3 | 0.00 | 0.00 | 0.00 | 78 | 1016.9 |
| 20260508014422 | 55 | 4 | 6.1 | 11.3 | 0.00 | 0.00 | 0.00 | 77 | 1016.8 |
| 20260508014011 | 55 | 357 | 7.0 | 11.3 | 0.00 | 0.00 | 0.00 | 78 | 1016.8 |
| 20260508013905 | 55 | 40 | 6.1 | 11.3 | 0.00 | 0.00 | 0.00 | 78 | 1016.8 |
| 20260508013504 | 55 | 344 | 6.1 | 11.3 | 0.00 | 0.00 | 0.00 | 77 | 1016.7 |
| 20260508013348 | 55 | 344 | 4.3 | 11.3 | 0.00 | 0.00 | 0.00 | 77 | 1016.9 |
| 20260508012957 | 55 | 305 | 6.1 | 11.3 | 0.00 | 0.00 | 0.00 | 76 | 1016.8 |
| 20260508012831 | 56 | 294 | 5.2 | 11.3 | 0.00 | 0.00 | 0.00 | 76 | 1016.9 |
| 20260508012450 | 56 | 0 | 9.6 | 11.3 | 0.00 | 0.00 | 0.00 | 76 | 1016.9 |
| 20260508012314 | 56 | 4 | 0.9 | 11.3 | 0.00 | 0.00 | 0.00 | 75 | 1017.0 |
| 20260508011943 | 56 | 15 | 4.3 | 11.3 | 0.00 | 0.00 | 0.00 | 75 | 1017.0 |
| 20260508011757 | 56 | 347 | 4.3 | 11.3 | 0.00 | 0.00 | 0.00 | 74 | 1017.0 |
| 20260508011436 | 57 | 327 | 7.8 | 11.3 | 0.00 | 0.00 | 0.00 | 73 | 1017.0 |
| 20260508011240 | 57 | 305 | 5.2 | 9.6 | 0.00 | 0.00 | 0.00 | 73 | 1017.0 |
| 20260508010929 | 57 | 9 | 6.1 | 9.6 | 0.00 | 0.00 | 0.00 | 72 | 1017.0 |
| 20260508010723 | 58 | 306 | 7.0 | 8.7 | 0.00 | 0.00 | 0.00 | 72 | 1017.1 |
| 20260508010422 | 58 | 306 | 4.3 | 8.7 | 0.00 | 0.00 | 0.00 | 72 | 1017.1 |
| 20260508010206 | 58 | 357 | 4.3 | 8.7 | 0.00 | 0.00 | 0.00 | 71 | 1017.1 |
| 20260508005916 | 58 | 330 | 6.1 | 8.7 | 0.00 | 0.00 | 0.00 | 70 | 1017.1 |
| 20260508005408 | 59 | 288 | 5.2 | 8.7 | 0.00 | 0.00 | 0.00 | 68 | 1017.1 |
| 20260508005132 | 60 | 333 | 6.1 | 8.7 | 0.00 | 0.00 | 0.00 | 68 | 1016.9 |
| 20260508004901 | 60 | 340 | 7.0 | 9.6 | 0.00 | 0.00 | 0.00 | 68 | 1017.0 |
| 20260508004615 | 61 | 4 | 4.3 | 9.6 | 0.00 | 0.00 | 0.00 | 68 | 1017.0 |
| 20260508004354 | 61 | 4 | 4.3 | 9.6 | 0.00 | 0.00 | 0.00 | 68 | 1016.9 |
| 20260508004058 | 61 | 340 | 4.3 | 9.6 | 0.00 | 0.00 | 0.00 | 68 | 1017.1 |
| 20260508003847 | 60 | 7 | 6.1 | 9.6 | 0.00 | 0.00 | 0.00 | 69 | 1017.1 |
| 20260508003541 | 60 | 326 | 5.2 | 9.6 | 0.00 | 0.00 | 0.00 | 68 | 1017.1 |
| 20260508003340 | 60 | 303 | 5.2 | 9.6 | 0.00 | 0.00 | 0.00 | 68 | 1017.2 |
| 20260508003025 | 60 | 8 | 4.3 | 7.8 | 0.00 | 0.00 | 0.00 | 69 | 1017.3 |
| 20260508002833 | 60 | 50 | 6.1 | 7.8 | 0.00 | 0.00 | 0.00 | 69 | 1017.3 |
| 20260508002507 | 60 | 350 | 3.5 | 7.0 | 0.00 | 0.00 | 0.00 | 69 | 1017.3 |
| 20260508002326 | 60 | 337 | 4.3 | 11.3 | 0.00 | 0.00 | 0.00 | 69 | 1017.4 |
| 20260508001950 | 60 | 292 | 7.0 | 11.3 | 0.00 | 0.00 | 0.00 | 69 | 1017.4 |
| 20260508001819 | 60 | 46 | 3.5 | 11.3 | 0.00 | 0.00 | 0.00 | 69 | 1017.4 |
| 20260508001433 | 60 | 337 | 6.1 | 11.3 | 0.00 | 0.00 | 0.00 | 68 | 1017.4 |
| 20260508001312 | 60 | 337 | 6.1 | 11.3 | 0.00 | 0.00 | 0.00 | 68 | 1017.4 |
| 20260508000916 | 60 | 301 | 6.1 | 11.3 | 0.00 | 0.00 | 0.00 | 68 | 1017.5 |
| 20260508000808 | 60 | 298 | 4.3 | 11.3 | 0.00 | 0.00 | 0.00 | 68 | 1017.5 |
| 20260508000359 | 60 | 295 | 7.0 | 8.7 | 0.00 | 0.00 | 0.00 | 68 | 1017.5 |
| 20260508000258 | 60 | 295 | 7.8 | 8.7 | 0.00 | 0.00 | 0.00 | 68 | 1017.5 |
| 20260507235842 | 60 | 351 | 5.2 | 11.3 | 0.00 | 0.00 | 0.00 | 68 | 1017.6 |
| 20260507235751 | 60 | 305 | 4.3 | 11.3 | 0.00 | 0.00 | 0.00 | 68 | 1017.5 |
| 20260507235325 | 60 | 305 | 7.8 | 11.3 | 0.00 | 0.00 | 0.00 | 67 | 1017.5 |
| 20260507234808 | 60 | 313 | 8.7 | 11.3 | 0.00 | 0.00 | 0.00 | 67 | 1017.6 |
| 20260507234737 | 60 | 315 | 7.0 | 11.3 | 0.00 | 0.00 | 0.00 | 67 | 1017.6 |
| 20260507234251 | 60 | 317 | 5.2 | 10.4 | 0.00 | 0.00 | 0.00 | 67 | 1017.7 |
| 20260507234230 | 60 | 317 | 7.0 | 10.4 | 0.00 | 0.00 | 0.00 | 67 | 1017.7 |
| 20260507233734 | 60 | 322 | 7.8 | 10.4 | 0.00 | 0.00 | 0.00 | 68 | 1017.6 |
| 20260507233723 | 60 | 322 | 7.0 | 10.4 | 0.00 | 0.00 | 0.00 | 67 | 1017.6 |
| 20260507233217 | 61 | 330 | 7.8 | 10.4 | 0.00 | 0.00 | 0.00 | 67 | 1017.5 |
| 20260507232700 | 61 | 285 | 4.3 | 11.3 | 0.00 | 0.00 | 0.00 | 67 | 1017.5 |
| 20260507232202 | 61 | 323 | 7.8 | 11.3 | 0.00 | 0.00 | 0.00 | 66 | 1017.5 |
| 20260507232143 | 61 | 323 | 8.7 | 11.3 | 0.00 | 0.00 | 0.00 | 67 | 1017.5 |
| 20260507231655 | 61 | 348 | 7.0 | 11.3 | 0.00 | 0.00 | 0.00 | 65 | 1017.7 |
| 20260507231626 | 62 | 348 | 7.8 | 11.3 | 0.00 | 0.00 | 0.00 | 65 | 1017.7 |
| 20260507231148 | 62 | 306 | 6.1 | 11.3 | 0.00 | 0.00 | 0.00 | 66 | 1017.8 |
| 20260507231109 | 62 | 306 | 7.0 | 11.3 | 0.00 | 0.00 | 0.00 | 66 | 1017.8 |
| 20260507230641 | 62 | 317 | 7.8 | 9.6 | 0.00 | 0.00 | 0.00 | 66 | 1017.8 |
| 20260507230552 | 62 | 317 | 4.3 | 9.6 | 0.00 | 0.00 | 0.00 | 65 | 1017.8 |
| 20260507230134 | 62 | 320 | 5.2 | 12.2 | 0.00 | 0.00 | 0.00 | 65 | 1017.7 |
| 20260507225627 | 62 | 327 | 7.8 | 12.2 | 0.00 | 0.00 | 0.00 | 66 | 1017.6 |
| 20260507225518 | 62 | 23 | 4.3 | 12.2 | 0.00 | 0.00 | 0.00 | 66 | 1017.7 |
| 20260507225122 | 62 | 2 | 3.5 | 12.2 | 0.00 | 0.00 | 0.00 | 66 | 1017.7 |
| 20260507225001 | 62 | 14 | 4.3 | 12.2 | 0.00 | 0.00 | 0.00 | 66 | 1017.7 |
| 20260507224613 | 62 | 302 | 7.8 | 12.2 | 0.00 | 0.00 | 0.00 | 66 | 1017.8 |
| 20260507224444 | 62 | 357 | 3.5 | 9.6 | 0.00 | 0.00 | 0.00 | 67 | 1017.8 |
| 20260507224106 | 62 | 323 | 7.8 | 9.6 | 0.00 | 0.00 | 0.00 | 65 | 1017.9 |
| 20260507223927 | 62 | 323 | 7.0 | 9.6 | 0.00 | 0.00 | 0.00 | 66 | 1017.9 |
| 20260507223559 | 62 | 295 | 7.0 | 7.0 | 0.00 | 0.00 | 0.00 | 67 | 1018.0 |
| 20260507223410 | 62 | 326 | 6.1 | 12.2 | 0.00 | 0.00 | 0.00 | 66 | 1018.0 |
| 20260507223052 | 62 | 357 | 7.8 | 12.2 | 0.00 | 0.00 | 0.00 | 68 | 1017.9 |
| 20260507222853 | 62 | 357 | 6.1 | 12.2 | 0.00 | 0.00 | 0.00 | 67 | 1017.8 |
| 20260507222545 | 62 | 18 | 4.3 | 12.2 | 0.00 | 0.00 | 0.00 | 67 | 1018.0 |
| 20260507222336 | 62 | 18 | 6.1 | 12.2 | 0.00 | 0.00 | 0.00 | 67 | 1018.0 |
| 20260507222038 | 61 | 21 | 6.1 | 12.2 | 0.00 | 0.00 | 0.00 | 68 | 1018.1 |
| 20260507221819 | 61 | 294 | 5.2 | 12.2 | 0.00 | 0.00 | 0.00 | 67 | 1018.2 |
| 20260507221531 | 61 | 329 | 7.8 | 9.6 | 0.00 | 0.00 | 0.00 | 67 | 1018.1 |
| 20260507221302 | 61 | 8 | 4.3 | 9.6 | 0.00 | 0.00 | 0.00 | 67 | 1018.2 |
| 20260507221024 | 62 | 319 | 7.0 | 9.6 | 0.00 | 0.00 | 0.00 | 67 | 1018.2 |
| 20260507220745 | 62 | 313 | 7.0 | 9.6 | 0.00 | 0.00 | 0.00 | 67 | 1018.2 |
| 20260507220517 | 62 | 313 | 6.1 | 9.6 | 0.00 | 0.00 | 0.00 | 68 | 1018.3 |
| 20260507220228 | 61 | 312 | 7.8 | 9.6 | 0.00 | 0.00 | 0.00 | 68 | 1018.4 |
| 20260507220010 | 61 | 340 | 4.3 | 9.6 | 0.00 | 0.00 | 0.00 | 68 | 1018.5 |
| 20260507215711 | 61 | 327 | 7.8 | 15.6 | 0.00 | 0.00 | 0.00 | 68 | 1018.4 |
| 20260507215503 | 61 | 322 | 7.8 | 15.6 | 0.00 | 0.00 | 0.00 | 68 | 1018.3 |
| 20260507215154 | 61 | 18 | 8.7 | 15.6 | 0.00 | 0.00 | 0.00 | 66 | 1018.4 |
| 20260507214956 | 62 | 18 | 7.0 | 15.6 | 0.00 | 0.00 | 0.00 | 67 | 1018.5 |
| 20260507214637 | 62 | 316 | 7.8 | 15.6 | 0.00 | 0.00 | 0.00 | 68 | 1018.5 |
| 20260507214449 | 62 | 306 | 5.2 | 15.6 | 0.00 | 0.00 | 0.00 | 67 | 1018.5 |
| 20260507214120 | 62 | 303 | 9.6 | 15.6 | 0.00 | 0.00 | 0.00 | 67 | 1018.6 |
| 20260507213942 | 62 | 306 | 6.1 | 10.4 | 0.00 | 0.00 | 0.00 | 66 | 1018.6 |
| 20260507213603 | 62 | 319 | 7.8 | 10.4 | 0.00 | 0.00 | 0.00 | 67 | 1018.6 |
| 20260507213435 | 62 | 319 | 9.6 | 10.4 | 0.00 | 0.00 | 0.00 | 67 | 1018.6 |
| 20260507213046 | 62 | 316 | 7.0 | 10.4 | 0.00 | 0.00 | 0.00 | 67 | 1018.5 |
| 20260507212928 | 62 | 316 | 7.8 | 10.4 | 0.00 | 0.00 | 0.00 | 67 | 1018.5 |
| 20260507212529 | 62 | 285 | 7.8 | 12.2 | 0.00 | 0.00 | 0.00 | 67 | 1018.5 |
| 20260507212421 | 62 | 312 | 7.0 | 12.2 | 0.00 | 0.00 | 0.00 | 68 | 1018.5 |
| 20260507212012 | 61 | 32 | 7.0 | 12.2 | 0.00 | 0.00 | 0.00 | 68 | 1018.6 |
| 20260507211914 | 61 | 32 | 7.0 | 12.2 | 0.00 | 0.00 | 0.00 | 67 | 1018.5 |
| 20260507211455 | 61 | 331 | 7.8 | 12.2 | 0.00 | 0.00 | 0.00 | 67 | 1018.6 |
| 20260507211407 | 61 | 330 | 5.2 | 12.2 | 0.00 | 0.00 | 0.00 | 67 | 1018.6 |
| 20260507210938 | 62 | 308 | 11.3 | 12.2 | 0.00 | 0.00 | 0.00 | 66 | 1018.6 |
| 20260507210900 | 62 | 308 | 11.3 | 12.2 | 0.00 | 0.00 | 0.00 | 66 | 1018.5 |
| 20260507210421 | 62 | 310 | 6.1 | 11.3 | 0.00 | 0.00 | 0.00 | 67 | 1018.3 |
| 20260507210353 | 62 | 310 | 7.0 | 11.3 | 0.00 | 0.00 | 0.00 | 67 | 1018.3 |
| 20260507205904 | 62 | 315 | 7.8 | 11.3 | 0.00 | 0.00 | 0.00 | 67 | 1018.4 |
| 20260507205846 | 62 | 315 | 7.0 | 11.3 | 0.00 | 0.00 | 0.00 | 67 | 1018.4 |
| 20260507205339 | 62 | 5 | 3.5 | 11.3 | 0.00 | 0.00 | 0.00 | 68 | 1018.3 |
| 20260507204830 | 61 | 0 | 0.0 | 10.4 | 0.00 | 0.00 | 0.00 | 69 | 1018.3 |
| 20260507204325 | 61 | 331 | 4.3 | 9.6 | 0.00 | 0.00 | 0.00 | 68 | 1018.4 |
| 20260507204313 | 61 | 331 | 5.2 | 9.6 | 0.00 | 0.00 | 0.00 | 68 | 1018.4 |
| 20260507203818 | 61 | 273 | 4.3 | 9.6 | 0.00 | 0.00 | 0.00 | 68 | 1018.5 |
| 20260507203756 | 61 | 26 | 6.1 | 9.6 | 0.00 | 0.00 | 0.00 | 68 | 1018.5 |
| 20260507203311 | 61 | 295 | 4.3 | 9.6 | 0.00 | 0.00 | 0.00 | 68 | 1018.4 |
| 20260507203239 | 61 | 292 | 7.0 | 9.6 | 0.00 | 0.00 | 0.00 | 68 | 1018.4 |
| 20260507202804 | 61 | 330 | 7.0 | 12.2 | 0.00 | 0.00 | 0.00 | 68 | 1018.4 |
| 20260507202722 | 61 | 322 | 7.8 | 12.2 | 0.00 | 0.00 | 0.00 | 68 | 1018.4 |
| 20260507202257 | 61 | 0 | 3.5 | 12.2 | 0.00 | 0.00 | 0.00 | 68 | 1018.5 |
| 20260507202205 | 61 | 309 | 7.0 | 12.2 | 0.00 | 0.00 | 0.00 | 68 | 1018.5 |
| 20260507201750 | 61 | 338 | 7.0 | 12.2 | 0.00 | 0.00 | 0.00 | 68 | 1018.5 |
| 20260507201648 | 61 | 338 | 10.4 | 12.2 | 0.00 | 0.00 | 0.00 | 69 | 1018.6 |
| 20260507201243 | 61 | 299 | 6.1 | 11.3 | 0.00 | 0.00 | 0.00 | 69 | 1018.6 |
| 20260507201131 | 60 | 299 | 6.1 | 11.3 | 0.00 | 0.00 | 0.00 | 69 | 1018.6 |
| 20260507200736 | 60 | 267 | 9.6 | 11.3 | 0.00 | 0.00 | 0.00 | 69 | 1018.7 |
| 20260507200614 | 60 | 267 | 7.0 | 11.3 | 0.00 | 0.00 | 0.00 | 69 | 1018.7 |
| 20260507200229 | 61 | 281 | 7.0 | 10.4 | 0.00 | 0.00 | 0.00 | 70 | 1018.6 |
| 20260507200057 | 60 | 281 | 7.0 | 10.4 | 0.00 | 0.00 | 0.00 | 69 | 1018.7 |
| 20260507195722 | 60 | 305 | 8.7 | 10.4 | 0.00 | 0.00 | 0.00 | 69 | 1018.7 |
| 20260507195540 | 60 | 305 | 7.0 | 10.4 | 0.00 | 0.00 | 0.00 | 69 | 1018.8 |
| 20260507195215 | 60 | 315 | 5.2 | 10.4 | 0.00 | 0.00 | 0.00 | 69 | 1018.8 |
| 20260507195023 | 60 | 294 | 7.8 | 11.3 | 0.00 | 0.00 | 0.00 | 68 | 1018.8 |
| 20260507194708 | 61 | 326 | 5.2 | 11.3 | 0.00 | 0.00 | 0.00 | 69 | 1018.9 |
| 20260507194506 | 61 | 326 | 6.1 | 11.3 | 0.00 | 0.00 | 0.00 | 70 | 1018.9 |
| 20260507194201 | 61 | 43 | 6.1 | 11.3 | 0.00 | 0.00 | 0.00 | 72 | 1019.0 |
| 20260507193949 | 60 | 43 | 7.8 | 11.3 | 0.00 | 0.00 | 0.00 | 71 | 1019.1 |
| 20260507193654 | 60 | 280 | 5.2 | 11.3 | 0.00 | 0.00 | 0.00 | 69 | 1018.8 |
| 20260507193432 | 61 | 280 | 8.7 | 11.3 | 0.00 | 0.00 | 0.00 | 69 | 1018.9 |
| 20260507193147 | 61 | 345 | 8.7 | 9.6 | 0.00 | 0.00 | 0.00 | 69 | 1018.9 |
| 20260507192914 | 61 | 33 | 6.1 | 7.8 | 0.00 | 0.00 | 0.00 | 70 | 1019.0 |
| 20260507192640 | 61 | 309 | 8.7 | 11.3 | 0.00 | 0.00 | 0.00 | 70 | 1019.0 |
| 20260507192357 | 61 | 337 | 3.5 | 11.3 | 0.00 | 0.00 | 0.00 | 71 | 1019.0 |
| 20260507192133 | 60 | 74 | 6.1 | 11.3 | 0.00 | 0.00 | 0.00 | 72 | 1019.0 |
| 20260507191841 | 60 | 324 | 7.0 | 11.3 | 0.00 | 0.00 | 0.00 | 72 | 1019.1 |
| 20260507191626 | 60 | 264 | 4.3 | 11.3 | 0.00 | 0.00 | 0.00 | 72 | 1019.1 |
| 20260507191323 | 59 | 47 | 1.7 | 11.3 | 0.00 | 0.00 | 0.00 | 71 | 1019.2 |
| 20260507191121 | 59 | 296 | 7.8 | 11.3 | 0.00 | 0.00 | 0.00 | 71 | 1019.1 |
| 20260507190806 | 59 | 320 | 8.7 | 11.3 | 0.00 | 0.00 | 0.00 | 71 | 1019.2 |
| 20260507190249 | 60 | 336 | 7.0 | 10.4 | 0.00 | 0.00 | 0.00 | 72 | 1019.1 |
| 20260507190105 | 60 | 305 | 7.0 | 10.4 | 0.00 | 0.00 | 0.00 | 72 | 1019.1 |
| 20260507185733 | 60 | 313 | 7.0 | 10.4 | 0.00 | 0.00 | 0.00 | 72 | 1019.2 |
| 20260507185558 | 59 | 333 | 6.1 | 10.4 | 0.00 | 0.00 | 0.00 | 72 | 1019.2 |
| 20260507185215 | 59 | 301 | 7.8 | 10.4 | 0.00 | 0.00 | 0.00 | 72 | 1019.2 |
| 20260507185051 | 60 | 301 | 9.6 | 10.4 | 0.00 | 0.00 | 0.00 | 72 | 1019.3 |
| 20260507184544 | 60 | 316 | 5.2 | 9.6 | 0.00 | 0.00 | 0.00 | 71 | 1019.3 |
| 20260507184141 | 60 | 4 | 6.1 | 9.6 | 0.00 | 0.00 | 0.00 | 72 | 1019.3 |
| 20260507184037 | 60 | 4 | 6.1 | 9.6 | 0.00 | 0.00 | 0.00 | 73 | 1019.3 |
| 20260507183625 | 59 | 310 | 7.0 | 9.6 | 0.00 | 0.00 | 0.00 | 72 | 1019.2 |
| 20260507183530 | 59 | 302 | 6.1 | 9.6 | 0.00 | 0.00 | 0.00 | 72 | 1019.1 |
| 20260507183107 | 59 | 330 | 7.0 | 9.6 | 0.00 | 0.00 | 0.00 | 73 | 1019.2 |
| 20260507183023 | 59 | 294 | 5.2 | 9.6 | 0.00 | 0.00 | 0.00 | 73 | 1019.2 |
| 20260507182550 | 59 | 299 | 6.1 | 9.6 | 0.00 | 0.00 | 0.00 | 73 | 1019.3 |
| 20260507182516 | 59 | 299 | 6.1 | 9.6 | 0.00 | 0.00 | 0.00 | 72 | 1019.2 |
| 20260507182033 | 59 | 282 | 6.1 | 9.6 | 0.00 | 0.00 | 0.00 | 73 | 1019.3 |
| 20260507182009 | 59 | 282 | 6.1 | 9.6 | 0.00 | 0.00 | 0.00 | 73 | 1019.4 |
| 20260507181516 | 59 | 338 | 2.6 | 9.6 | 0.00 | 0.00 | 0.00 | 74 | 1019.4 |
| 20260507181502 | 59 | 338 | 2.6 | 9.6 | 0.00 | 0.00 | 0.00 | 74 | 1019.4 |
| 20260507181000 | 58 | 326 | 6.1 | 9.6 | 0.00 | 0.00 | 0.00 | 74 | 1019.5 |
| 20260507180954 | 58 | 326 | 7.8 | 9.6 | 0.00 | 0.00 | 0.00 | 74 | 1019.5 |
| 20260507180447 | 58 | 302 | 7.0 | 9.6 | 0.00 | 0.00 | 0.00 | 74 | 1019.4 |
| 20260507180443 | 58 | 302 | 7.8 | 9.6 | 0.00 | 0.00 | 0.00 | 74 | 1019.4 |
| 20260507175940 | 58 | 333 | 6.1 | 10.4 | 0.00 | 0.00 | 0.00 | 75 | 1019.5 |
| 20260507175925 | 58 | 333 | 7.8 | 10.4 | 0.00 | 0.00 | 0.00 | 75 | 1019.5 |
| 20260507175434 | 58 | 331 | 5.2 | 10.4 | 0.00 | 0.00 | 0.00 | 75 | 1019.4 |
| 20260507175408 | 58 | 331 | 7.8 | 10.4 | 0.00 | 0.00 | 0.00 | 76 | 1019.4 |
| 20260507174926 | 58 | 330 | 2.6 | 10.4 | 0.00 | 0.00 | 0.00 | 76 | 1019.4 |
| 20260507174851 | 58 | 330 | 2.6 | 10.4 | 0.00 | 0.00 | 0.00 | 76 | 1019.4 |
| 20260507174419 | 57 | 313 | 7.0 | 10.4 | 0.00 | 0.00 | 0.00 | 76 | 1019.5 |
| 20260507174334 | 57 | 313 | 7.0 | 10.4 | 0.00 | 0.00 | 0.00 | 77 | 1019.5 |
| 20260507173912 | 57 | 334 | 7.0 | 8.7 | 0.00 | 0.00 | 0.00 | 76 | 1019.5 |
| 20260507173818 | 57 | 322 | 4.3 | 8.7 | 0.00 | 0.00 | 0.00 | 76 | 1019.6 |
| 20260507173405 | 57 | 326 | 4.3 | 8.7 | 0.00 | 0.00 | 0.00 | 77 | 1019.5 |
| 20260507173300 | 57 | 0 | 1.7 | 8.7 | 0.00 | 0.00 | 0.00 | 77 | 1019.6 |
| 20260507172858 | 57 | 333 | 6.1 | 7.8 | 0.00 | 0.00 | 0.00 | 77 | 1019.6 |
| 20260507172743 | 57 | 266 | 3.5 | 7.8 | 0.00 | 0.00 | 0.00 | 78 | 1019.6 |
| 20260507172351 | 57 | 1 | 4.3 | 7.8 | 0.00 | 0.00 | 0.00 | 79 | 1019.7 |
| 20260507172226 | 57 | 357 | 5.2 | 7.8 | 0.00 | 0.00 | 0.00 | 79 | 1019.7 |
| 20260507171845 | 56 | 357 | 3.5 | 7.8 | 0.00 | 0.00 | 0.00 | 80 | 1019.7 |
| 20260507171710 | 56 | 329 | 4.3 | 7.0 | 0.00 | 0.00 | 0.00 | 80 | 1019.8 |
| 20260507171337 | 56 | 329 | 2.6 | 3.5 | 0.00 | 0.00 | 0.00 | 79 | 1019.8 |
| 20260507171155 | 56 | 338 | 6.1 | 9.6 | 0.00 | 0.00 | 0.00 | 80 | 1019.8 |
| 20260507170830 | 56 | 315 | 2.6 | 9.6 | 0.00 | 0.00 | 0.00 | 80 | 1019.8 |
| 20260507170635 | 56 | 324 | 5.2 | 9.6 | 0.00 | 0.00 | 0.00 | 80 | 1019.8 |
| 20260507170324 | 56 | 324 | 6.1 | 9.6 | 0.00 | 0.00 | 0.00 | 80 | 1019.8 |
| 20260507170119 | 56 | 295 | 6.1 | 9.6 | 0.00 | 0.00 | 0.00 | 80 | 1019.8 |
| 20260507165816 | 56 | 295 | 7.0 | 9.6 | 0.00 | 0.00 | 0.00 | 80 | 1019.7 |
| 20260507165601 | 56 | 302 | 7.0 | 9.6 | 0.00 | 0.00 | 0.00 | 80 | 1019.7 |
| 20260507165309 | 56 | 324 | 4.3 | 8.7 | 0.00 | 0.00 | 0.00 | 80 | 1019.8 |
| 20260507165045 | 56 | 327 | 7.8 | 8.7 | 0.00 | 0.00 | 0.00 | 80 | 1019.7 |
| 20260507164802 | 56 | 0 | 0.0 | 7.8 | 0.00 | 0.00 | 0.00 | 81 | 1019.8 |
| 20260507164527 | 56 | 9 | 3.5 | 7.8 | 0.00 | 0.00 | 0.00 | 81 | 1019.8 |
| 20260507164255 | 56 | 0 | 0.0 | 7.8 | 0.00 | 0.00 | 0.00 | 81 | 1019.8 |
| 20260507164010 | 56 | 322 | 4.3 | 7.8 | 0.00 | 0.00 | 0.00 | 81 | 1019.8 |
| 20260507163748 | 56 | 336 | 6.1 | 7.8 | 0.00 | 0.00 | 0.00 | 81 | 1019.8 |
| 20260507163241 | 56 | 337 | 6.1 | 7.8 | 0.00 | 0.00 | 0.00 | 82 | 1019.9 |
| 20260507162936 | 56 | 337 | 4.3 | 7.8 | 0.00 | 0.00 | 0.00 | 82 | 1019.9 |
| 20260507162734 | 56 | 322 | 7.0 | 7.8 | 0.00 | 0.00 | 0.00 | 82 | 1019.9 |
| 20260507162419 | 56 | 324 | 2.6 | 7.0 | 0.00 | 0.00 | 0.00 | 83 | 1019.9 |
| 20260507162227 | 55 | 329 | 6.1 | 7.0 | 0.00 | 0.00 | 0.00 | 83 | 1019.9 |
| 20260507161902 | 55 | 329 | 5.2 | 7.0 | 0.00 | 0.00 | 0.00 | 84 | 1019.9 |
| 20260507161720 | 55 | 357 | 3.5 | 7.0 | 0.00 | 0.00 | 0.00 | 84 | 1019.9 |
| 20260507161345 | 55 | 322 | 4.3 | 7.0 | 0.00 | 0.00 | 0.00 | 83 | 1019.9 |
| 20260507161214 | 55 | 287 | 3.5 | 7.0 | 0.00 | 0.00 | 0.00 | 84 | 1019.9 |
| 20260507160829 | 55 | 341 | 3.5 | 7.8 | 0.00 | 0.00 | 0.00 | 84 | 1019.9 |
| 20260507160706 | 54 | 326 | 2.6 | 7.8 | 0.00 | 0.00 | 0.00 | 84 | 1019.9 |
| 20260507160312 | 54 | 7 | 4.3 | 7.8 | 0.00 | 0.00 | 0.00 | 84 | 1019.8 |
| 20260507160200 | 54 | 316 | 4.3 | 7.8 | 0.00 | 0.00 | 0.00 | 84 | 1019.9 |
| 20260507155754 | 54 | 310 | 2.6 | 7.8 | 0.00 | 0.00 | 0.00 | 84 | 1019.9 |
| 20260507155654 | 54 | 310 | 4.3 | 7.8 | 0.00 | 0.00 | 0.00 | 85 | 1019.9 |
| 20260507155237 | 54 | 36 | 6.1 | 7.8 | 0.00 | 0.00 | 0.00 | 85 | 1019.8 |
| 20260507155145 | 54 | 28 | 5.2 | 6.1 | 0.00 | 0.00 | 0.00 | 85 | 1019.8 |
| 20260507154720 | 54 | 326 | 4.3 | 6.1 | 0.00 | 0.00 | 0.00 | 85 | 1019.9 |
| 20260507154638 | 54 | 326 | 2.6 | 6.1 | 0.00 | 0.00 | 0.00 | 85 | 1019.9 |
| 20260507154203 | 54 | 305 | 2.6 | 6.1 | 0.00 | 0.00 | 0.00 | 86 | 1019.8 |
| 20260507154131 | 54 | 305 | 2.6 | 6.1 | 0.00 | 0.00 | 0.00 | 86 | 1019.8 |
| 20260507153625 | 54 | 299 | 2.6 | 6.1 | 0.00 | 0.00 | 0.00 | 86 | 1019.8 |
| 20260507153130 | 53 | 303 | 1.7 | 3.5 | 0.00 | 0.00 | 0.00 | 87 | 1019.9 |
| 20260507152610 | 53 | 308 | 2.6 | 6.1 | 0.00 | 0.00 | 0.00 | 87 | 1019.9 |
| 20260507152056 | 53 | 302 | 1.7 | 6.1 | 0.00 | 0.00 | 0.00 | 87 | 1019.9 |
| 20260507151556 | 53 | 340 | 1.7 | 6.1 | 0.00 | 0.00 | 0.00 | 87 | 1019.9 |
| 20260507151538 | 53 | 340 | 3.5 | 6.1 | 0.00 | 0.00 | 0.00 | 87 | 1019.9 |
| 20260507151050 | 53 | 0 | 0.0 | 3.5 | 0.00 | 0.00 | 0.00 | 87 | 1019.9 |
| 20260507151021 | 53 | 0 | 0.0 | 3.5 | 0.00 | 0.00 | 0.00 | 87 | 1019.9 |
| 20260507150542 | 53 | 0 | 0.0 | 3.5 | 0.00 | 0.00 | 0.00 | 88 | 1020.0 |
| 20260507150504 | 53 | 0 | 0.0 | 3.5 | 0.00 | 0.00 | 0.00 | 88 | 1019.9 |
| 20260507150036 | 53 | 0 | 0.0 | 3.5 | 0.00 | 0.00 | 0.00 | 88 | 1019.9 |
| 20260507145947 | 53 | 0 | 0.0 | 3.5 | 0.00 | 0.00 | 0.00 | 88 | 1019.9 |
| 20260507145528 | 53 | 322 | 0.9 | 3.5 | 0.00 | 0.00 | 0.00 | 88 | 1019.9 |
| 20260507145430 | 53 | 322 | 0.9 | 3.5 | 0.00 | 0.00 | 0.00 | 88 | 1019.8 |
| 20260507145021 | 53 | 357 | 0.9 | 2.6 | 0.00 | 0.00 | 0.00 | 88 | 1019.9 |
| 20260507144913 | 53 | 357 | 0.9 | 2.6 | 0.00 | 0.00 | 0.00 | 88 | 1019.9 |
| 20260507144516 | 53 | 0 | 0.0 | 0.0 | 0.00 | 0.00 | 0.00 | 89 | 1019.8 |
| 20260507144356 | 53 | 0 | 0.0 | 0.0 | 0.00 | 0.00 | 0.00 | 89 | 1019.9 |
| 20260507143839 | 53 | 0 | 0.0 | 0.0 | 0.00 | 0.00 | 0.00 | 89 | 1019.9 |
| 20260507143500 | 53 | 0 | 0.0 | 0.0 | 0.00 | 0.00 | 0.00 | 89 | 1019.9 |
| 20260507143322 | 53 | 0 | 0.0 | 0.0 | 0.00 | 0.00 | 0.00 | 89 | 1019.9 |
| 20260507142953 | 52 | 0 | 0.0 | 0.0 | 0.00 | 0.00 | 0.00 | 89 | 1019.9 |
| 20260507142805 | 52 | 0 | 0.0 | 0.0 | 0.00 | 0.00 | 0.00 | 90 | 1019.8 |
| 20260507142446 | 52 | 0 | 0.0 | 0.0 | 0.00 | 0.00 | 0.00 | 90 | 1019.8 |
| 20260507142249 | 52 | 0 | 0.0 | 0.0 | 0.00 | 0.00 | 0.00 | 90 | 1019.8 |
| 20260507141939 | 52 | 0 | 0.0 | 0.0 | 0.00 | 0.00 | 0.00 | 90 | 1019.8 |
| 20260507141732 | 52 | 0 | 0.0 | 0.0 | 0.00 | 0.00 | 0.00 | 90 | 1019.8 |